createdAt,value
2022-11-14T00:02:43.502Z,7.34
2022-11-14T00:05:29.709Z,7.35
2022-11-14T00:08:20.967Z,7.42
2022-11-14T00:11:06.851Z,7.39
2022-11-14T00:13:53.029Z,7.40
2022-11-14T00:16:40.065Z,7.42
2022-11-14T00:19:25.826Z,7.43
2022-11-14T00:22:11.993Z,7.41
2022-11-14T00:24:58.119Z,7.39
2022-11-14T00:27:43.952Z,7.39
2022-11-14T00:30:30.281Z,7.26
2022-11-14T00:33:20.690Z,7.35
2022-11-14T00:36:07.656Z,7.23
2022-11-14T00:38:55.226Z,7.38
2022-11-14T00:41:41.849Z,7.38
2022-11-14T00:44:27.521Z,7.27
2022-11-14T00:47:13.657Z,7.39
2022-11-14T00:49:59.594Z,7.41
2022-11-14T00:52:45.661Z,7.42
2022-11-14T00:55:31.691Z,7.33
2022-11-14T00:58:17.393Z,7.37
2022-11-14T01:01:03.164Z,7.35
2022-11-14T01:03:52.687Z,7.32
2022-11-14T01:06:38.546Z,7.28
2022-11-14T01:09:24.555Z,7.32
2022-11-14T01:12:10.448Z,7.30
2022-11-14T01:14:56.506Z,7.33
2022-11-14T01:17:42.638Z,7.35
2022-11-14T01:20:28.495Z,7.37
2022-11-14T01:23:16.328Z,7.34
2022-11-14T01:26:07.875Z,7.33
2022-11-14T01:28:54.136Z,7.33
2022-11-14T01:31:39.907Z,7.29
2022-11-14T01:34:26.819Z,7.30
2022-11-14T01:37:12.848Z,7.30
2022-11-14T01:39:58.620Z,7.32
2022-11-14T01:43:19.452Z,7.34
2022-11-14T01:46:30.886Z,7.32
2022-11-14T01:49:16.664Z,7.33
2022-11-14T01:52:06.791Z,7.32
2022-11-14T01:54:55.636Z,7.29
2022-11-14T01:57:46.578Z,7.31
2022-11-14T02:00:32.348Z,7.34
2022-11-14T02:03:19.232Z,7.33
2022-11-14T02:06:06.880Z,7.26
2022-11-14T02:08:54.108Z,7.26
2022-11-14T02:11:46.329Z,7.28
2022-11-14T02:14:35.233Z,7.23
2022-11-14T02:17:29.522Z,7.23
2022-11-14T02:20:23.207Z,7.23
2022-11-14T02:23:12.689Z,7.10
2022-11-14T02:25:59.355Z,7.21
2022-11-14T02:28:45.156Z,7.19
2022-11-14T02:31:31.039Z,7.19
2022-11-14T02:34:20.230Z,7.25
2022-11-14T02:37:06.965Z,7.26
2022-11-14T02:39:53.009Z,7.26
2022-11-14T02:42:38.777Z,7.24
2022-11-14T02:45:25.186Z,7.25
2022-11-14T02:48:10.943Z,7.23
2022-11-14T02:50:56.927Z,7.18
2022-11-14T02:53:43.112Z,7.15
2022-11-14T02:56:28.814Z,7.19
2022-11-14T02:59:14.746Z,6.90
2022-11-14T03:02:02.904Z,7.12
2022-11-14T03:04:48.845Z,7.13
2022-11-14T03:07:34.595Z,7.14
2022-11-14T03:10:22.088Z,7.08
2022-11-14T03:13:07.920Z,7.14
2022-11-14T03:15:53.788Z,7.12
2022-11-14T03:18:39.901Z,7.14
2022-11-14T03:21:25.807Z,7.16
2022-11-14T03:24:11.599Z,7.13
2022-11-14T03:26:57.464Z,7.12
2022-11-14T03:29:42.961Z,7.08
2022-11-14T03:32:28.577Z,7.05
2022-11-14T03:35:14.210Z,7.04
2022-11-14T03:38:00.095Z,7.05
2022-11-14T03:40:45.940Z,7.07
2022-11-14T03:43:34.165Z,7.04
2022-11-14T03:46:20.514Z,7.02
2022-11-14T03:49:06.300Z,7.01
2022-11-14T03:51:52.310Z,6.95
2022-11-14T03:54:38.709Z,6.97
2022-11-14T03:57:24.624Z,6.98
2022-11-14T04:00:10.979Z,6.99
2022-11-14T04:02:57.858Z,6.97
2022-11-14T04:05:46.576Z,6.95
2022-11-14T04:08:33.282Z,6.95
2022-11-14T04:11:20.109Z,6.93
2022-11-14T04:14:05.885Z,6.94
2022-11-14T04:16:51.823Z,6.92
2022-11-14T04:19:37.965Z,6.92
2022-11-14T04:22:23.967Z,6.91
2022-11-14T04:25:10.374Z,6.89
2022-11-14T04:27:56.553Z,6.93
2022-11-14T04:30:42.700Z,6.96
2022-11-14T04:33:28.456Z,6.97
2022-11-14T04:36:14.245Z,6.92
2022-11-14T04:39:00.177Z,6.99
2022-11-14T04:41:46.090Z,7.00
2022-11-14T04:44:31.828Z,7.00
2022-11-14T04:47:18.158Z,6.97
2022-11-14T04:50:04.483Z,6.95
2022-11-14T04:52:54.099Z,6.96
2022-11-14T04:55:40.153Z,6.95
2022-11-14T04:58:26.888Z,6.96
2022-11-14T05:01:14.893Z,6.98
2022-11-14T05:04:00.968Z,6.98
2022-11-14T05:06:47.354Z,6.96
2022-11-14T05:09:33.022Z,6.96
2022-11-14T05:12:19.036Z,6.98
2022-11-14T05:15:05.316Z,7.02
2022-11-14T05:17:51.030Z,7.02
2022-11-14T05:20:37.136Z,7.01
2022-11-14T05:23:24.613Z,6.98
2022-11-14T05:26:12.916Z,6.99
2022-11-14T05:28:59.190Z,7.02
2022-11-14T05:31:45.028Z,7.06
2022-11-14T05:34:31.019Z,7.05
2022-11-14T05:37:16.903Z,7.15
2022-11-14T05:40:04.751Z,7.07
2022-11-14T05:42:50.491Z,7.07
2022-11-14T05:45:36.409Z,7.15
2022-11-14T05:48:22.213Z,7.15
2022-11-14T05:51:11.932Z,7.13
2022-11-14T05:53:58.134Z,7.05
2022-11-14T05:56:43.972Z,7.06
2022-11-14T05:59:29.818Z,7.06
2022-11-14T06:02:15.621Z,7.07
2022-11-14T06:05:01.422Z,7.09
2022-11-14T06:07:47.412Z,7.12
2022-11-14T06:10:35.824Z,7.07
2022-11-14T06:13:21.746Z,7.08
2022-11-14T06:16:11.345Z,7.05
2022-11-14T06:18:57.555Z,7.06
2022-11-14T06:21:43.525Z,7.06
2022-11-14T06:24:29.462Z,7.05
2022-11-14T06:27:15.226Z,7.06
2022-11-14T06:30:01.078Z,7.08
2022-11-14T06:32:47.297Z,7.02
2022-11-14T06:35:33.590Z,7.04
2022-11-14T06:38:19.664Z,6.98
2022-11-14T06:41:08.437Z,7.00
2022-11-14T06:43:55.154Z,7.01
2022-11-14T06:46:41.142Z,6.96
2022-11-14T06:49:28.070Z,7.05
2022-11-14T06:52:14.143Z,7.04
2022-11-14T06:55:00.350Z,7.06
2022-11-14T06:57:46.159Z,6.96
2022-11-14T07:00:32.342Z,7.05
2022-11-14T07:03:18.264Z,7.04
2022-11-14T07:06:05.509Z,6.99
2022-11-14T07:08:52.738Z,6.95
2022-11-14T07:11:38.505Z,7.03
2022-11-14T07:14:24.616Z,7.03
2022-11-14T07:17:10.359Z,7.00
2022-11-14T07:19:56.316Z,7.02
2022-11-14T07:22:42.399Z,7.04
2022-11-14T07:25:28.264Z,7.04
2022-11-14T07:28:14.106Z,7.01
2022-11-14T07:31:00.082Z,7.01
2022-11-14T07:33:46.198Z,7.04
2022-11-14T07:36:32.173Z,7.03
2022-11-14T07:39:18.124Z,6.97
2022-11-14T07:42:04.364Z,7.00
2022-11-14T07:44:50.526Z,6.99
2022-11-14T07:47:36.109Z,7.01
2022-11-14T07:50:21.894Z,7.03
2022-11-14T07:53:08.031Z,7.04
2022-11-14T07:55:53.659Z,7.01
2022-11-14T07:58:41.448Z,6.98
2022-11-14T08:01:28.066Z,6.99
2022-11-14T08:04:14.223Z,7.02
2022-11-14T08:07:00.321Z,6.98
2022-11-14T08:09:46.993Z,6.98
2022-11-14T08:12:33.713Z,6.95
2022-11-14T08:15:19.713Z,6.95
2022-11-14T08:18:06.154Z,6.97
2022-11-14T08:20:53.263Z,6.95
2022-11-14T08:23:39.835Z,7.01
2022-11-14T08:26:28.910Z,6.96
2022-11-14T08:29:17.555Z,7.00
2022-11-14T08:32:03.732Z,7.03
2022-11-14T08:34:50.092Z,7.08
2022-11-14T08:37:36.403Z,7.14
2022-11-14T08:40:23.433Z,7.13
2022-11-14T08:43:11.701Z,7.24
2022-11-14T08:46:03.143Z,7.26
2022-11-14T08:48:49.723Z,7.33
2022-11-14T08:51:36.631Z,7.34
2022-11-14T08:54:23.162Z,7.44
2022-11-14T08:57:09.613Z,7.48
2022-11-14T08:59:56.523Z,7.43
2022-11-14T09:02:42.922Z,7.47
2022-11-14T09:05:29.452Z,7.55
2022-11-14T09:08:16.961Z,7.37
2022-11-14T09:11:09.958Z,7.55
2022-11-14T09:13:56.583Z,7.57
2022-11-14T09:16:43.315Z,7.61
2022-11-14T09:19:29.732Z,7.64
2022-11-14T09:22:16.422Z,7.69
2022-11-14T09:25:03.778Z,7.72
2022-11-14T09:27:50.603Z,7.77
2022-11-14T09:30:37.913Z,7.84
2022-11-14T09:33:24.402Z,7.88
2022-11-14T09:36:16.253Z,7.90
2022-11-14T09:39:02.831Z,7.94
2022-11-14T09:41:57.922Z,7.99
2022-11-14T09:45:03.482Z,8.05
2022-11-14T09:47:55.152Z,8.09
2022-11-14T09:50:48.983Z,8.14
2022-11-14T09:53:45.771Z,8.12
2022-11-14T09:56:31.435Z,8.25
2022-11-14T09:59:17.696Z,8.24
2022-11-14T10:02:54.664Z,8.16
2022-11-14T10:05:40.571Z,8.11
2022-11-14T10:09:05.198Z,8.04
2022-11-14T10:12:16.640Z,8.07
2022-11-14T10:15:34.087Z,8.11
2022-11-14T10:18:43.976Z,8.08
2022-11-14T10:21:57.386Z,8.08
2022-11-14T10:24:51.230Z,8.14
2022-11-14T10:28:03.859Z,8.15
2022-11-14T10:31:24.594Z,8.24
2022-11-14T10:34:59.424Z,8.25
2022-11-14T10:37:57.724Z,8.22
2022-11-14T10:40:47.848Z,8.19
2022-11-14T10:43:42.394Z,8.21
2022-11-14T10:46:40.708Z,8.18
2022-11-14T10:49:27.058Z,8.22
2022-11-14T10:52:22.929Z,8.23
2022-11-14T10:55:17.898Z,8.27
2022-11-14T10:58:11.011Z,8.28
2022-11-14T11:00:57.012Z,8.29
2022-11-14T11:03:44.785Z,8.30
2022-11-14T11:06:30.518Z,8.32
2022-11-14T11:09:47.305Z,8.29
2022-11-14T11:13:05.661Z,8.27
2022-11-14T11:15:58.279Z,8.26
2022-11-14T11:18:47.308Z,8.26
2022-11-14T11:21:48.850Z,8.34
2022-11-14T11:24:38.477Z,8.30
2022-11-14T11:27:27.292Z,8.37
2022-11-14T11:30:23.469Z,8.36
2022-11-14T11:33:32.419Z,8.43
2022-11-14T11:36:20.826Z,8.40
2022-11-14T11:39:09.931Z,8.38
2022-11-14T11:42:14.016Z,8.38
2022-11-14T11:45:02.849Z,8.39
2022-11-14T11:48:22.852Z,8.39
2022-11-14T11:51:17.430Z,8.43
2022-11-14T11:54:21.076Z,8.49
2022-11-14T11:57:21.162Z,8.45
2022-11-14T12:00:16.537Z,8.50
2022-11-14T12:03:02.686Z,8.54
2022-11-14T12:05:57.374Z,8.54
2022-11-14T12:09:04.085Z,8.56
2022-11-14T12:12:01.702Z,8.59
2022-11-14T12:15:33.975Z,8.68
2022-11-14T12:18:41.350Z,8.69
2022-11-14T12:21:39.176Z,8.68
2022-11-14T12:24:25.053Z,8.60
2022-11-14T12:27:25.554Z,8.60
2022-11-14T12:30:22.090Z,8.54
2022-11-14T12:33:16.521Z,8.51
2022-11-14T12:36:06.691Z,8.52
2022-11-14T12:38:54.956Z,8.57
2022-11-14T12:41:42.052Z,8.53
2022-11-14T12:44:27.652Z,8.55
2022-11-14T12:47:17.284Z,8.55
2022-11-14T12:50:06.477Z,8.55
2022-11-14T12:52:55.090Z,8.54
2022-11-14T12:55:46.835Z,8.50
2022-11-14T12:58:47.349Z,8.47
2022-11-14T13:01:48.289Z,8.48
2022-11-14T13:04:43.168Z,8.49
2022-11-14T13:07:41.608Z,8.50
2022-11-14T13:10:33.450Z,8.47
2022-11-14T13:13:38.105Z,8.48
2022-11-14T13:16:45.063Z,8.45
2022-11-14T13:19:49.359Z,8.53
2022-11-14T13:22:45.124Z,8.50
2022-11-14T13:25:31.490Z,8.50
2022-11-14T13:28:38.914Z,8.47
2022-11-14T13:31:34.046Z,8.41
2022-11-14T13:34:45.197Z,8.40
2022-11-14T13:37:59.474Z,8.33
2022-11-14T13:41:07.316Z,8.36
2022-11-14T13:44:11.598Z,8.31
2022-11-14T13:47:03.966Z,8.29
2022-11-14T13:50:11.515Z,8.27
2022-11-14T13:52:57.913Z,8.23
2022-11-14T13:55:59.570Z,8.20
2022-11-14T13:59:10.513Z,8.23
2022-11-14T14:02:11.424Z,8.21
2022-11-14T14:05:02.754Z,8.20
2022-11-14T14:08:06.907Z,8.15
2022-11-14T14:11:42.743Z,8.13
2022-11-14T14:15:00.035Z,7.85
2022-11-14T14:18:02.239Z,8.10
2022-11-14T14:21:11.447Z,8.05
2022-11-14T14:24:04.191Z,8.03
2022-11-14T14:27:22.366Z,8.00
2022-11-14T14:30:10.525Z,7.92
2022-11-14T14:33:15.624Z,7.83
2022-11-14T14:36:01.855Z,7.62
2022-11-14T14:38:48.762Z,7.75
2022-11-14T14:41:35.811Z,7.78
2022-11-14T14:44:31.935Z,7.75
2022-11-14T14:47:35.740Z,7.74
2022-11-14T14:50:27.031Z,7.72
2022-11-14T14:53:28.448Z,7.70
2022-11-14T14:56:25.152Z,7.69
2022-11-14T14:59:23.788Z,7.66
2022-11-14T15:02:16.748Z,7.64
2022-11-14T15:05:03.155Z,7.62
2022-11-14T15:07:50.372Z,7.57
2022-11-14T15:10:37.329Z,7.54
2022-11-14T15:13:25.577Z,7.48
2022-11-14T15:16:12.113Z,7.55
2022-11-14T15:18:59.825Z,7.54
2022-11-14T15:21:45.974Z,7.57
2022-11-14T15:24:32.218Z,7.50
2022-11-14T15:27:20.781Z,7.54
2022-11-14T15:30:19.968Z,7.49
2022-11-14T15:33:07.432Z,7.47
2022-11-14T15:36:14.401Z,7.41
2022-11-14T15:39:22.100Z,7.36
2022-11-14T15:42:15.449Z,7.35
2022-11-14T15:45:01.225Z,7.33
2022-11-14T15:47:47.504Z,7.31
2022-11-14T15:50:35.531Z,7.31
2022-11-14T15:53:23.887Z,7.28
2022-11-14T15:56:16.190Z,7.27
2022-11-14T15:59:01.897Z,7.26
2022-11-14T16:01:55.225Z,7.18
2022-11-14T16:04:47.103Z,7.20
2022-11-14T16:07:33.581Z,7.22
2022-11-14T16:10:23.406Z,7.21
2022-11-14T16:13:11.360Z,7.17
2022-11-14T16:15:57.307Z,7.15
2022-11-14T16:18:43.012Z,7.09
2022-11-14T16:21:28.832Z,7.08
2022-11-14T16:24:23.162Z,7.07
2022-11-14T16:27:09.894Z,7.15
2022-11-14T16:29:55.610Z,7.18
2022-11-14T16:32:46.533Z,7.21
2022-11-14T16:35:32.357Z,7.22
2022-11-14T16:38:17.957Z,7.22
2022-11-14T16:41:08.355Z,7.17
2022-11-14T16:43:58.134Z,7.19
2022-11-14T16:46:45.774Z,7.14
2022-11-14T16:49:31.509Z,7.08
2022-11-14T16:52:17.701Z,7.08
2022-11-14T16:55:03.697Z,7.03
2022-11-14T16:57:49.683Z,6.96
2022-11-14T17:00:36.091Z,6.98
2022-11-14T17:03:22.626Z,6.98
2022-11-14T17:06:10.805Z,6.93
2022-11-14T17:08:58.094Z,6.95
2022-11-14T17:11:44.886Z,6.94
2022-11-14T17:14:31.529Z,6.88
2022-11-14T17:17:17.361Z,6.78
2022-11-14T17:20:03.526Z,6.90
2022-11-14T17:22:49.456Z,6.96
2022-11-14T17:25:35.540Z,6.90
2022-11-14T17:28:22.015Z,6.95
2022-11-14T17:31:09.172Z,6.95
2022-11-14T17:33:57.186Z,6.94
2022-11-14T17:36:43.446Z,6.94
2022-11-14T17:39:30.326Z,6.90
2022-11-14T17:42:17.055Z,6.90
2022-11-14T17:45:03.664Z,6.88
2022-11-14T17:47:49.893Z,6.88
2022-11-14T17:50:40.659Z,6.82
2022-11-14T17:53:27.593Z,6.77
2022-11-14T17:56:19.936Z,6.74
2022-11-14T17:59:06.397Z,6.76
2022-11-14T18:01:55.413Z,6.72
2022-11-14T18:04:41.864Z,6.74
2022-11-14T18:07:31.001Z,6.74
2022-11-14T18:10:18.174Z,6.72
2022-11-14T18:13:05.679Z,6.65
2022-11-14T18:15:51.754Z,6.62
2022-11-14T18:18:38.783Z,6.63
2022-11-14T18:21:26.088Z,6.61
2022-11-14T18:24:15.633Z,6.70
2022-11-14T18:27:02.624Z,6.72
2022-11-14T18:29:49.232Z,6.69
2022-11-14T18:32:35.933Z,6.72
2022-11-14T18:35:22.284Z,6.68
2022-11-14T18:38:08.833Z,6.72
2022-11-14T18:40:57.483Z,6.68
2022-11-14T18:43:47.825Z,6.62
2022-11-14T18:46:37.391Z,6.60
2022-11-14T18:49:24.290Z,6.58
2022-11-14T18:52:16.939Z,6.60
2022-11-14T18:55:05.702Z,6.58
2022-11-14T18:57:53.297Z,6.51
2022-11-14T19:00:39.693Z,6.58
2022-11-14T19:03:26.324Z,6.58
2022-11-14T19:06:13.805Z,6.61
2022-11-14T19:09:05.591Z,6.60
2022-11-14T19:12:26.973Z,6.55
2022-11-14T19:15:13.903Z,6.60
2022-11-14T19:18:00.365Z,6.57
2022-11-14T19:20:58.192Z,6.58
2022-11-14T19:23:44.914Z,6.55
2022-11-14T19:26:31.793Z,6.62
2022-11-14T19:29:18.338Z,6.58
2022-11-14T19:32:06.044Z,6.61
2022-11-14T19:34:52.353Z,6.64
2022-11-14T19:37:38.413Z,6.64
2022-11-14T19:40:26.683Z,6.62
2022-11-14T19:43:12.643Z,6.65
2022-11-14T19:46:05.945Z,6.63
2022-11-14T19:49:03.333Z,6.66
2022-11-14T19:51:50.914Z,6.64
2022-11-14T19:54:37.203Z,6.65
2022-11-14T19:57:23.973Z,6.66
2022-11-14T20:00:10.565Z,6.66
2022-11-14T20:02:57.074Z,6.61
2022-11-14T20:05:43.355Z,6.61
2022-11-14T20:08:29.955Z,6.69
2022-11-14T20:11:16.154Z,6.70
2022-11-14T20:14:03.324Z,6.66
2022-11-14T20:16:49.466Z,6.67
2022-11-14T20:19:35.923Z,6.68
2022-11-14T20:22:22.174Z,6.71
2022-11-14T20:25:09.353Z,6.72
2022-11-14T20:27:55.807Z,6.68
2022-11-14T20:30:42.523Z,6.63
2022-11-14T20:33:30.231Z,6.62
2022-11-14T20:36:20.213Z,6.61
2022-11-14T20:39:06.573Z,6.63
2022-11-14T20:41:53.353Z,6.59
2022-11-14T20:44:39.973Z,6.65
2022-11-14T20:47:28.203Z,6.60
2022-11-14T20:50:15.902Z,6.61
2022-11-14T20:53:02.123Z,6.48
2022-11-14T20:55:54.313Z,6.59
2022-11-14T20:58:42.234Z,6.60
2022-11-14T21:01:28.904Z,6.57
2022-11-14T21:04:16.354Z,6.49
2022-11-14T21:07:02.887Z,6.51
2022-11-14T21:09:49.733Z,6.49
2022-11-14T21:12:36.373Z,6.49
2022-11-14T21:15:22.975Z,6.50
2022-11-14T21:18:09.464Z,6.46
2022-11-14T21:21:05.323Z,6.47
2022-11-14T21:23:52.404Z,6.48
2022-11-14T21:26:40.345Z,6.50
2022-11-14T21:29:27.863Z,6.53
2022-11-14T21:32:14.154Z,6.52
2022-11-14T21:35:03.378Z,6.44
2022-11-14T21:37:53.204Z,6.41
2022-11-14T21:40:39.353Z,6.43
2022-11-14T21:43:25.783Z,6.43
2022-11-14T21:46:17.953Z,6.43
2022-11-14T21:49:04.565Z,6.37
2022-11-14T21:51:51.443Z,6.47
2022-11-14T21:54:38.124Z,6.50
2022-11-14T21:57:24.913Z,6.49
2022-11-14T22:00:12.333Z,6.44
2022-11-14T22:03:18.804Z,6.43
2022-11-14T22:06:05.783Z,6.42
2022-11-14T22:08:56.444Z,6.39
2022-11-14T22:11:42.984Z,6.39
2022-11-14T22:14:29.902Z,6.22
2022-11-14T22:17:15.873Z,6.42
2022-11-14T22:20:02.259Z,6.39
2022-11-14T22:22:48.672Z,6.42
2022-11-14T22:25:34.824Z,6.38
2022-11-14T22:28:21.053Z,6.35
2022-11-14T22:31:10.133Z,6.35
2022-11-14T22:33:58.440Z,6.36
2022-11-14T22:36:44.642Z,6.32
2022-11-14T22:39:30.813Z,6.28
2022-11-14T22:42:17.113Z,6.24
2022-11-14T22:45:03.734Z,6.22
2022-11-14T22:47:50.263Z,6.22
2022-11-14T22:50:36.774Z,6.28
2022-11-14T22:53:23.554Z,6.36
2022-11-14T22:56:12.197Z,6.35
2022-11-14T22:59:01.643Z,6.35
2022-11-14T23:01:48.543Z,6.33
2022-11-14T23:04:35.243Z,6.30
2022-11-14T23:07:21.179Z,6.32
2022-11-14T23:10:09.117Z,6.33
2022-11-14T23:12:55.197Z,6.31
2022-11-14T23:15:47.918Z,6.28
2022-11-14T23:18:35.044Z,6.22
2022-11-14T23:21:25.095Z,6.20
2022-11-14T23:24:14.835Z,6.19
2022-11-14T23:27:01.039Z,6.18
2022-11-14T23:29:46.834Z,6.19
2022-11-14T23:32:32.618Z,6.18
2022-11-14T23:35:18.806Z,6.18
2022-11-14T23:38:05.121Z,6.17
2022-11-14T23:40:55.860Z,6.05
2022-11-14T23:43:41.789Z,6.15
2022-11-14T23:46:27.824Z,6.17
2022-11-14T23:49:13.604Z,5.90
2022-11-14T23:51:59.385Z,6.16
2022-11-14T23:54:45.346Z,6.15
2022-11-14T23:57:31.554Z,6.15
